Time;durP1;ratioP1;P1;durP2;ratioP2;P2;SDS_P1;SDS_P2;PMS_P1;PMS_P2;Temp;Humidity;BMP_temperature;BMP_pressure;BME280_temperature;BME280_humidity;BME280_pressure;Samples;Min_cycle;Max_cycle;Signal;HPM_P1;HPM_P2
2022/02/18 00:00:00;;;;;;;5.53;1.63;;;10.20;99.90;;;;;;5053210;28;20245;-84
2022/02/18 00:02:27;;;;;;;5.63;1.57;;;10.20;99.90;;;;;;5051833;28;20234;-84
2022/02/18 00:04:54;;;;;;;6.83;1.60;;;10.20;99.90;;;;;;5051271;28;20679;-84
2022/02/18 00:07:21;;;;;;;3.33;1.20;;;10.20;99.90;;;;;;5051707;28;20278;-84
2022/02/18 00:09:48;;;;;;;5.83;1.60;;;10.30;99.90;;;;;;5052448;28;20634;-84
2022/02/18 00:12:16;;;;;;;6.03;1.67;;;10.30;99.90;;;;;;5052681;28;20258;-84
2022/02/18 00:14:43;;;;;;;5.90;1.57;;;10.30;99.90;;;;;;5052992;28;20200;-84
2022/02/18 00:17:10;;;;;;;9.53;1.90;;;10.40;99.90;;;;;;5051783;28;20227;-84
2022/02/18 00:19:37;;;;;;;9.00;1.77;;;10.40;99.90;;;;;;5052389;28;20283;-82
2022/02/18 00:22:05;;;;;;;8.10;2.00;;;10.50;99.90;;;;;;5046220;28;20196;-84
2022/02/18 00:24:31;;;;;;;7.80;1.80;;;10.60;99.90;;;;;;5052788;28;20203;-84
2022/02/18 00:26:59;;;;;;;10.47;1.63;;;10.70;99.90;;;;;;5052892;28;20279;-84
2022/02/18 00:29:27;;;;;;;7.20;1.90;;;10.70;99.90;;;;;;5052792;28;20310;-84
2022/02/18 00:31:54;;;;;;;8.80;2.03;;;10.80;99.90;;;;;;5051907;28;20729;-84
2022/02/18 00:34:21;;;;;;;6.70;1.93;;;10.90;99.90;;;;;;5052129;28;20223;-84
2022/02/18 00:36:48;;;;;;;9.57;1.90;;;10.90;99.90;;;;;;5052499;28;20200;-83
2022/02/18 00:39:15;;;;;;;9.33;2.50;;;11.00;99.90;;;;;;5049652;28;20208;-84
2022/02/18 00:41:43;;;;;;;11.90;2.30;;;11.00;99.90;;;;;;5052159;28;20231;-85
2022/02/18 00:44:10;;;;;;;7.40;1.83;;;11.00;99.90;;;;;;5052131;28;20224;-84
2022/02/18 00:46:38;;;;;;;9.93;2.37;;;11.10;99.90;;;;;;5046136;28;20227;-84
2022/02/18 00:49:05;;;;;;;10.00;2.60;;;11.10;99.90;;;;;;5051690;28;20314;-84
2022/02/18 00:51:32;;;;;;;10.17;2.13;;;11.20;99.90;;;;;;5052047;28;20200;-84
2022/02/18 00:53:59;;;;;;;11.70;2.30;;;11.20;99.90;;;;;;5052322;28;20287;-84
2022/02/18 00:56:26;;;;;;;12.47;2.70;;;11.20;99.90;;;;;;5052619;28;20196;-84
2022/02/18 00:58:53;;;;;;;13.20;2.50;;;11.20;99.90;;;;;;5052782;28;20223;-84
2022/02/18 01:01:20;;;;;;;12.90;2.50;;;11.10;99.90;;;;;;5051998;28;20239;-84
2022/02/18 01:03:49;;;;;;;13.77;2.47;;;11.10;99.90;;;;;;5051620;28;20841;-84
2022/02/18 01:06:15;;;;;;;10.07;2.37;;;11.20;99.90;;;;;;5052178;28;20239;-84
2022/02/18 01:08:42;;;;;;;10.70;2.10;;;11.00;99.90;;;;;;5051931;28;20238;-84
2022/02/18 01:11:09;;;;;;;10.70;2.33;;;11.10;99.90;;;;;;5051941;28;20322;-84
2022/02/18 01:13:36;;;;;;;11.70;2.27;;;11.10;99.90;;;;;;5051070;28;20291;-83
2022/02/18 01:16:04;;;;;;;12.47;2.13;;;11.00;99.90;;;;;;5051159;28;20207;-84
2022/02/18 01:18:30;;;;;;;8.50;1.80;;;11.00;99.90;;;;;;5051653;28;20231;-84
2022/02/18 01:20:59;;;;;;;5.57;1.77;;;11.00;99.90;;;;;;5051617;28;20668;-83
2022/02/18 01:23:26;;;;;;;9.53;2.23;;;11.00;99.90;;;;;;5052090;28;20228;-82
2022/02/18 01:25:53;;;;;;;10.13;2.23;;;11.00;99.90;;;;;;5052275;28;20207;-82
2022/02/18 01:28:20;;;;;;;8.17;2.00;;;10.90;99.90;;;;;;5051186;28;20230;-82
2022/02/18 01:30:47;;;;;;;10.37;2.00;;;10.80;99.90;;;;;;5050546;28;20251;-82
2022/02/18 01:33:14;;;;;;;12.63;2.20;;;10.80;99.90;;;;;;5050677;28;20203;-82
2022/02/18 01:35:42;;;;;;;10.10;2.17;;;10.80;99.90;;;;;;5051221;28;20223;-82
2022/02/18 01:38:10;;;;;;;6.83;1.80;;;10.80;99.90;;;;;;5051010;28;20206;-84
2022/02/18 01:40:37;;;;;;;9.07;2.20;;;10.80;99.90;;;;;;5051171;28;20223;-82
2022/02/18 01:43:04;;;;;;;7.77;1.77;;;10.80;99.90;;;;;;5051315;28;20703;-84
2022/02/18 01:45:31;;;;;;;10.13;2.30;;;10.80;99.90;;;;;;5051070;28;20259;-84
2022/02/18 01:47:58;;;;;;;5.53;1.70;;;10.80;99.90;;;;;;5050890;28;20238;-84
2022/02/18 01:50:25;;;;;;;7.37;2.07;;;10.70;99.90;;;;;;5051220;28;20648;-82
2022/02/18 01:52:54;;;;;;;9.63;1.80;;;10.70;99.90;;;;;;5051143;28;20223;-83
2022/02/18 01:55:24;;;;;;;6.90;1.60;;;10.70;99.90;;;;;;5050987;28;20253;-84
2022/02/18 01:57:53;;;;;;;9.03;1.90;;;10.70;99.90;;;;;;5051361;28;20291;-82
2022/02/18 02:00:22;;;;;;;7.57;2.07;;;10.60;99.90;;;;;;5050922;28;20196;-84
2022/02/18 02:02:50;;;;;;;6.50;1.70;;;10.60;99.90;;;;;;5050788;28;20227;-84
2022/02/18 02:05:18;;;;;;;4.27;1.27;;;10.60;99.90;;;;;;5050796;28;20293;-84
2022/02/18 02:07:46;;;;;;;7.17;1.83;;;10.60;99.90;;;;;;5051165;28;20303;-83
2022/02/18 02:10:14;;;;;;;3.63;1.20;;;10.50;99.90;;;;;;5051308;28;20302;-84
2022/02/18 02:12:47;;;;;;;4.93;1.17;;;10.50;99.90;;;;;;5051473;28;20196;-84
2022/02/18 02:15:15;;;;;;;5.43;1.23;;;10.60;99.90;;;;;;5050822;28;20200;-83
2022/02/18 02:17:41;;;;;;;4.90;1.10;;;10.50;99.90;;;;;;5050972;28;20227;-83
2022/02/18 02:20:10;;;;;;;4.73;1.03;;;10.60;99.90;;;;;;5050629;28;20710;-84
2022/02/18 02:22:39;;;;;;;5.90;1.53;;;10.50;99.90;;;;;;5049819;28;20283;-83
2022/02/18 02:25:07;;;;;;;6.37;1.40;;;10.60;99.90;;;;;;5050717;28;20234;-83
2022/02/18 02:27:35;;;;;;;5.47;1.00;;;10.60;99.90;;;;;;5053638;28;20196;-83
2022/02/18 02:30:02;;;;;;;4.30;1.03;;;10.60;99.90;;;;;;5054665;28;20785;-83
2022/02/18 02:32:29;;;;;;;4.43;1.17;;;10.70;99.90;;;;;;5055049;28;20227;-83
2022/02/18 02:34:56;;;;;;;3.27;1.07;;;10.60;99.90;;;;;;5054287;28;20274;-83
2022/02/18 02:37:23;;;;;;;4.17;1.33;;;10.60;99.90;;;;;;5054990;28;20615;-83
2022/02/18 02:39:52;;;;;;;3.43;1.10;;;10.60;99.90;;;;;;5055135;28;20234;-83
2022/02/18 02:42:19;;;;;;;2.57;0.77;;;10.60;99.90;;;;;;5054823;28;20662;-83
2022/02/18 02:44:46;;;;;;;3.07;0.90;;;10.60;99.90;;;;;;5055277;28;20274;-83
2022/02/18 02:47:13;;;;;;;4.53;0.90;;;10.60;99.90;;;;;;5054798;28;20326;-83
2022/02/18 02:49:40;;;;;;;4.13;1.00;;;10.50;99.90;;;;;;5055205;28;20211;-84
2022/02/18 02:52:07;;;;;;;4.83;1.17;;;10.60;99.90;;;;;;5052935;28;20223;-83
2022/02/18 02:54:34;;;;;;;4.40;0.83;;;10.60;99.90;;;;;;5054327;28;20427;-83
2022/02/18 02:57:03;;;;;;;3.33;0.90;;;10.60;99.90;;;;;;5054306;28;20235;-83
2022/02/18 02:59:30;;;;;;;6.20;1.30;;;10.60;99.90;;;;;;5054245;28;20234;-83
2022/02/18 03:01:57;;;;;;;6.87;0.83;;;10.60;99.90;;;;;;5054025;28;20218;-83
2022/02/18 03:04:24;;;;;;;4.10;1.10;;;10.60;99.90;;;;;;5053659;28;20234;-83
2022/02/18 03:06:51;;;;;;;7.67;1.20;;;10.70;99.90;;;;;;5054068;28;20261;-83
2022/02/18 03:09:18;;;;;;;5.87;1.00;;;10.60;99.90;;;;;;5054050;28;20239;-83
2022/02/18 03:11:45;;;;;;;6.23;1.03;;;10.70;99.90;;;;;;5054039;28;20669;-83
2022/02/18 03:14:13;;;;;;;4.93;0.70;;;10.70;99.90;;;;;;5054423;28;20269;-82
2022/02/18 03:16:40;;;;;;;5.07;1.10;;;10.80;99.90;;;;;;5054682;28;20254;-83
2022/02/18 03:19:07;;;;;;;6.23;1.03;;;10.80;99.90;;;;;;5054509;28;20628;-83
2022/02/18 03:21:34;;;;;;;6.30;1.20;;;10.80;99.90;;;;;;5054048;28;20278;-83
2022/02/18 03:24:01;;;;;;;5.53;1.27;;;10.80;99.90;;;;;;5054282;28;20227;-84
2022/02/18 03:26:28;;;;;;;6.77;1.30;;;10.90;99.90;;;;;;5053769;28;20239;-83
2022/02/18 03:28:55;;;;;;;7.10;0.87;;;10.80;99.90;;;;;;5053559;28;20727;-83
2022/02/18 03:31:23;;;;;;;7.73;1.60;;;10.80;99.90;;;;;;5053869;28;20215;-83
2022/02/18 03:33:50;;;;;;;6.07;1.07;;;10.80;99.90;;;;;;5052883;28;20283;-84
2022/02/18 03:36:17;;;;;;;6.77;1.20;;;10.70;99.90;;;;;;5053729;28;20257;-84
2022/02/18 03:38:44;;;;;;;5.70;0.97;;;10.60;99.90;;;;;;5053434;28;20246;-83
2022/02/18 03:41:11;;;;;;;5.40;1.13;;;10.60;99.90;;;;;;5051751;28;20203;-83
2022/02/18 03:43:38;;;;;;;4.07;1.00;;;10.50;99.90;;;;;;5047709;28;20316;-83
2022/02/18 03:46:05;;;;;;;5.33;0.90;;;10.40;99.90;;;;;;5053168;28;20255;-83
2022/02/18 03:48:33;;;;;;;5.77;1.40;;;10.40;99.90;;;;;;5053825;28;20305;-83
2022/02/18 03:51:00;;;;;;;5.77;1.10;;;10.30;99.90;;;;;;5053533;28;20247;-82
2022/02/18 03:53:27;;;;;;;1.80;0.90;;;10.10;99.90;;;;;;5053606;28;20279;-83
2022/02/18 03:55:55;;;;;;;4.40;0.90;;;10.20;99.90;;;;;;5053074;28;20200;-83
2022/02/18 03:58:22;;;;;;;4.10;0.83;;;10.00;99.90;;;;;;5048747;28;20211;-83
2022/02/18 04:00:49;;;;;;;5.43;1.10;;;10.10;99.90;;;;;;5046938;28;20246;-83
2022/02/18 04:03:16;;;;;;;2.83;0.90;;;10.00;99.90;;;;;;5053422;28;20199;-82
2022/02/18 04:05:45;;;;;;;6.73;1.00;;;10.00;99.90;;;;;;5053067;28;20235;-83
2022/02/18 04:08:12;;;;;;;4.13;0.93;;;10.00;99.90;;;;;;5052928;28;20284;-83
2022/02/18 04:10:39;;;;;;;6.30;0.80;;;9.90;99.90;;;;;;5053105;28;20262;-83
2022/02/18 04:13:06;;;;;;;4.47;1.03;;;9.90;99.90;;;;;;5052891;28;20283;-82
2022/02/18 04:15:34;;;;;;;6.60;1.23;;;9.90;99.90;;;;;;5053229;28;20231;-82
2022/02/18 04:18:01;;;;;;;4.57;1.00;;;9.90;99.90;;;;;;5052680;28;20247;-82
2022/02/18 04:20:29;;;;;;;4.20;1.27;;;9.90;99.90;;;;;;5052500;28;20200;-83
2022/02/18 04:22:58;;;;;;;6.53;1.07;;;9.90;99.90;;;;;;5053275;28;20239;-83
2022/02/18 04:25:25;;;;;;;4.00;0.90;;;9.90;99.90;;;;;;5051712;28;20687;-83
2022/02/18 04:27:54;;;;;;;6.00;1.00;;;9.80;99.90;;;;;;5053036;28;20303;-82
2022/02/18 04:30:21;;;;;;;5.70;1.20;;;9.90;99.90;;;;;;5052366;28;20737;-83
2022/02/18 04:32:48;;;;;;;3.00;0.87;;;9.90;99.90;;;;;;5052914;28;20235;-83
2022/02/18 04:35:15;;;;;;;5.53;1.07;;;9.90;99.90;;;;;;5052584;28;20254;-82
2022/02/18 04:37:42;;;;;;;3.10;0.90;;;9.90;99.90;;;;;;5053055;28;20624;-83
2022/02/18 04:40:13;;;;;;;5.07;1.23;;;9.90;99.90;;;;;;5052646;28;20208;-83
2022/02/18 04:42:40;;;;;;;3.50;0.90;;;9.80;99.90;;;;;;5052849;28;20307;-82
2022/02/18 04:45:08;;;;;;;3.97;1.17;;;9.90;99.90;;;;;;5052150;28;20651;-83
2022/02/18 04:47:35;;;;;;;5.63;1.10;;;9.80;99.90;;;;;;5052253;28;20238;-81
2022/02/18 04:50:02;;;;;;;3.63;1.07;;;9.80;99.90;;;;;;5052089;28;20676;-82
2022/02/18 04:52:29;;;;;;;5.00;0.97;;;9.90;99.90;;;;;;5052663;28;21034;-82
2022/02/18 04:54:56;;;;;;;5.80;1.00;;;9.90;99.90;;;;;;5052339;28;20664;-82
2022/02/18 04:57:25;;;;;;;6.00;1.00;;;9.80;99.90;;;;;;5053225;28;20259;-83
2022/02/18 04:59:52;;;;;;;6.50;1.30;;;9.90;99.90;;;;;;5050954;28;20638;-82
2022/02/18 05:02:18;;;;;;;3.30;1.00;;;9.80;99.90;;;;;;5051715;28;20303;-83
2022/02/18 05:04:45;;;;;;;4.37;1.00;;;9.90;99.90;;;;;;5051471;28;20702;-82
2022/02/18 05:07:12;;;;;;;3.87;0.67;;;9.90;99.90;;;;;;5052080;28;20227;-83
2022/02/18 05:09:39;;;;;;;4.27;0.83;;;9.90;99.90;;;;;;5051715;28;20239;-82
2022/02/18 05:12:07;;;;;;;5.33;0.80;;;9.90;99.90;;;;;;5052522;28;20281;-82
2022/02/18 05:14:35;;;;;;;2.37;0.60;;;9.90;99.90;;;;;;5052609;28;20285;-82
2022/02/18 05:17:02;;;;;;;2.73;0.77;;;9.90;99.90;;;;;;5051369;28;20602;-82
2022/02/18 05:19:29;;;;;;;5.00;0.80;;;9.90;99.90;;;;;;5052147;28;20292;-82
2022/02/18 05:21:56;;;;;;;1.90;0.60;;;9.90;99.90;;;;;;5052065;28;20702;-82
2022/02/18 05:24:23;;;;;;;2.97;0.70;;;9.90;99.90;;;;;;5051677;28;20239;-83
2022/02/18 05:26:50;;;;;;;3.27;1.00;;;9.90;99.90;;;;;;5051087;28;20242;-83
2022/02/18 05:29:16;;;;;;;2.93;0.70;;;9.90;99.90;;;;;;5051719;28;20223;-83
2022/02/18 05:31:45;;;;;;;5.33;0.97;;;9.90;99.90;;;;;;5051525;28;20679;-83
2022/02/18 05:34:12;;;;;;;3.23;0.80;;;10.00;99.90;;;;;;5052027;28;20231;-83
2022/02/18 05:36:39;;;;;;;2.17;0.60;;;9.90;99.90;;;;;;5050021;28;20235;-82
2022/02/18 05:39:06;;;;;;;5.80;1.10;;;10.10;99.90;;;;;;5051037;28;20206;-83
2022/02/18 05:41:33;;;;;;;4.70;0.93;;;10.10;99.90;;;;;;5051569;28;20664;-83
2022/02/18 05:44:00;;;;;;;3.40;1.00;;;10.00;99.90;;;;;;5051214;28;20250;-82
2022/02/18 05:46:27;;;;;;;6.50;0.90;;;10.20;99.90;;;;;;5051191;28;20611;-82
2022/02/18 05:48:56;;;;;;;8.57;1.20;;;10.80;99.90;;;;;;5051676;28;20223;-83
2022/02/18 05:51:23;;;;;;;4.63;1.10;;;10.30;99.90;;;;;;5050539;28;20247;-83
2022/02/18 05:53:50;;;;;;;4.97;0.97;;;10.10;99.90;;;;;;5051205;28;20682;-83
2022/02/18 05:56:16;;;;;;;5.60;1.30;;;10.00;99.90;;;;;;5051395;28;20204;-83
2022/02/18 05:58:45;;;;;;;8.07;1.30;;;10.30;99.90;;;;;;5051036;28;20613;-83
2022/02/18 06:01:12;;;;;;;5.30;1.23;;;10.30;99.90;;;;;;5049589;28;20200;-83
2022/02/18 06:03:38;;;;;;;8.73;1.43;;;10.40;99.90;;;;;;5050901;28;20672;-82
2022/02/18 06:06:07;;;;;;;7.23;1.20;;;10.40;99.90;;;;;;5051068;28;20203;-85
2022/02/18 06:08:34;;;;;;;6.27;1.23;;;10.40;99.90;;;;;;5050315;28;20286;-85
2022/02/18 06:11:01;;;;;;;5.87;1.30;;;10.40;99.90;;;;;;5051299;28;20215;-85
2022/02/18 06:13:28;;;;;;;5.47;1.23;;;10.40;99.90;;;;;;5051878;28;20226;-86
2022/02/18 06:15:55;;;;;;;7.47;1.40;;;10.40;99.90;;;;;;5051312;28;20908;-86
2022/02/18 06:18:22;;;;;;;5.93;1.57;;;11.00;99.90;;;;;;5051088;28;20278;-84
2022/02/18 06:20:49;;;;;;;7.03;0.93;;;10.90;99.90;;;;;;5050181;28;20503;-84
2022/02/18 06:23:17;;;;;;;4.27;0.90;;;10.40;99.90;;;;;;5051404;28;20664;-84
2022/02/18 06:25:44;;;;;;;6.10;0.93;;;10.30;99.90;;;;;;5050750;28;20203;-85
2022/02/18 06:28:13;;;;;;;2.73;0.83;;;10.30;99.90;;;;;;5050713;28;20208;-85
2022/02/18 06:30:40;;;;;;;4.33;0.90;;;10.30;99.90;;;;;;5050262;28;20257;-85
2022/02/18 06:33:08;;;;;;;3.00;0.80;;;10.20;99.90;;;;;;5044775;28;20286;-84
2022/02/18 06:35:35;;;;;;;3.40;1.10;;;10.20;99.90;;;;;;5043529;28;20235;-85
2022/02/18 06:38:02;;;;;;;3.70;0.77;;;10.20;99.90;;;;;;5043969;28;20235;-86
2022/02/18 06:40:30;;;;;;;3.23;0.60;;;10.20;99.90;;;;;;5047935;28;20283;-85
2022/02/18 06:42:57;;;;;;;2.60;0.70;;;10.30;99.90;;;;;;5044247;28;20274;-85
2022/02/18 06:45:25;;;;;;;3.07;0.60;;;10.20;99.90;;;;;;5045085;28;20254;-84
2022/02/18 06:47:52;;;;;;;2.33;0.60;;;10.30;99.90;;;;;;5045501;28;20282;-84
2022/02/18 06:50:20;;;;;;;2.03;0.50;;;10.30;99.90;;;;;;5041806;28;20219;-85
2022/02/18 06:52:49;;;;;;;4.93;1.00;;;10.30;99.90;;;;;;5049242;28;20770;-85
2022/02/18 06:55:17;;;;;;;4.47;0.87;;;10.40;99.90;;;;;;5048738;28;20258;-85
2022/02/18 06:57:47;;;;;;;5.10;1.33;;;10.60;99.90;;;;;;5049762;28;20707;-84
2022/02/18 07:00:16;;;;;;;7.87;1.03;;;10.30;99.90;;;;;;5049970;28;20223;-84
2022/02/18 07:02:43;;;;;;;5.57;1.30;;;10.40;99.90;;;;;;5045747;28;20240;-85
2022/02/18 07:05:12;;;;;;;3.50;0.90;;;10.30;99.90;;;;;;5048737;28;20333;-86
2022/02/18 07:07:39;;;;;;;5.17;1.30;;;10.30;99.90;;;;;;5047949;28;20291;-85
2022/02/18 07:10:09;;;;;;;4.50;0.90;;;10.30;99.90;;;;;;5049615;28;20585;-84
2022/02/18 07:12:35;;;;;;;3.17;1.10;;;10.40;99.90;;;;;;5049621;28;20258;-84
2022/02/18 07:15:05;;;;;;;4.00;1.10;;;11.10;99.90;;;;;;5054039;28;20279;-84
2022/02/18 07:17:33;;;;;;;4.57;0.93;;;10.40;99.90;;;;;;5052789;28;20282;-84
2022/02/18 07:20:02;;;;;;;3.67;1.10;;;10.50;99.90;;;;;;5047639;28;20212;-84
2022/02/18 07:22:29;;;;;;;5.80;1.57;;;10.60;99.90;;;;;;5044214;28;20200;-85
2022/02/18 07:24:56;;;;;;;2.63;0.97;;;10.50;99.90;;;;;;5052723;28;20223;-84
2022/02/18 07:27:23;;;;;;;4.17;1.10;;;10.00;99.90;;;;;;5053380;28;20196;-84
2022/02/18 07:29:50;;;;;;;6.53;1.43;;;10.60;99.90;;;;;;5053505;28;20286;-84
2022/02/18 07:32:20;;;;;;;4.63;1.40;;;10.60;99.90;;;;;;5052992;28;20251;-84
2022/02/18 07:34:47;;;;;;;5.03;1.40;;;10.60;99.90;;;;;;5050726;28;20199;-84
2022/02/18 07:37:14;;;;;;;5.83;1.40;;;10.60;99.90;;;;;;5049079;28;20245;-88
2022/02/18 07:39:41;;;;;;;5.70;1.40;;;10.50;99.90;;;;;;5052964;28;20204;-84
2022/02/18 07:42:09;;;;;;;4.93;1.30;;;10.50;99.90;;;;;;5049354;28;20203;-84
2022/02/18 07:44:36;;;;;;;7.87;1.63;;;10.50;99.90;;;;;;5051806;28;20214;-83
2022/02/18 07:47:04;;;;;;;5.40;1.53;;;10.40;99.90;;;;;;5052153;28;20196;-83
2022/02/18 07:49:33;;;;;;;7.63;1.77;;;10.50;99.90;;;;;;5052732;28;20199;-83
2022/02/18 07:52:00;;;;;;;3.73;1.40;;;10.50;99.90;;;;;;5051814;28;20759;-83
2022/02/18 07:54:27;;;;;;;5.97;1.50;;;10.40;99.90;;;;;;5049360;28;20204;-84
2022/02/18 07:56:54;;;;;;;4.73;1.23;;;10.70;99.90;;;;;;5052769;28;20683;-83
2022/02/18 07:59:21;;;;;;;5.87;2.03;;;9.90;99.90;;;;;;5051436;28;20240;-83
2022/02/18 08:01:48;;;;;;;5.67;1.30;;;10.40;99.90;;;;;;5051865;28;20231;-84
2022/02/18 08:04:14;;;;;;;7.23;2.50;;;10.40;99.90;;;;;;5047950;28;20208;-83
2022/02/18 08:06:43;;;;;;;3.07;1.20;;;10.40;99.90;;;;;;5050188;28;20201;-83
2022/02/18 08:09:10;;;;;;;7.13;1.50;;;10.40;99.90;;;;;;5047816;28;20227;-83
2022/02/18 08:11:38;;;;;;;6.33;1.47;;;10.40;99.90;;;;;;5051332;28;20753;-83
2022/02/18 08:14:05;;;;;;;7.03;1.27;;;10.40;99.90;;;;;;5050844;28;20196;-84
2022/02/18 08:16:32;;;;;;;4.40;1.17;;;10.40;99.90;;;;;;5051770;28;20257;-83
2022/02/18 08:18:59;;;;;;;4.73;1.30;;;10.40;99.90;;;;;;5051824;28;20203;-83
2022/02/18 08:21:27;;;;;;;5.73;1.40;;;10.40;99.90;;;;;;5050676;28;20279;-83
2022/02/18 08:23:55;;;;;;;5.20;1.53;;;10.50;99.90;;;;;;5050818;28;20873;-83
2022/02/18 08:26:23;;;;;;;4.77;1.30;;;10.50;99.90;;;;;;5051045;28;20709;-83
2022/02/18 08:28:50;;;;;;;4.43;1.50;;;10.50;99.90;;;;;;5052067;28;20246;-82
2022/02/18 08:31:19;;;;;;;4.17;1.00;;;10.60;99.90;;;;;;5052314;28;20243;-83
2022/02/18 08:33:45;;;;;;;5.43;1.20;;;10.60;99.90;;;;;;5048036;28;20200;-83
2022/02/18 08:36:12;;;;;;;5.10;1.17;;;10.60;99.90;;;;;;5047738;28;20240;-82
2022/02/18 08:38:41;;;;;;;4.93;1.20;;;10.70;99.90;;;;;;5050749;28;20291;-84
2022/02/18 08:41:10;;;;;;;5.27;1.47;;;10.70;99.90;;;;;;5050864;28;20203;-83
2022/02/18 08:43:37;;;;;;;5.60;1.03;;;10.60;99.90;;;;;;5049752;28;20718;-83
2022/02/18 08:46:04;;;;;;;5.03;1.23;;;9.80;99.90;;;;;;5051528;28;20223;-83
2022/02/18 08:48:31;;;;;;;2.53;0.77;;;9.40;99.90;;;;;;5047433;28;20208;-82
2022/02/18 08:50:58;;;;;;;5.33;1.20;;;9.30;99.90;;;;;;5050986;28;20283;-82
2022/02/18 08:53:25;;;;;;;5.57;1.33;;;9.30;99.90;;;;;;5050829;28;20247;-83
2022/02/18 08:55:52;;;;;;;7.47;1.20;;;9.30;99.90;;;;;;5051778;28;20754;-83
2022/02/18 08:58:21;;;;;;;5.17;1.20;;;9.30;99.90;;;;;;5051499;28;20253;-83
2022/02/18 09:00:49;;;;;;;5.70;1.30;;;9.40;99.90;;;;;;5050287;28;20242;-83
2022/02/18 09:03:17;;;;;;;5.83;1.30;;;;;;;;;;5052173;28;20629;-83
2022/02/18 09:05:44;;;;;;;4.80;1.07;;;;;;;;;;5045680;28;20647;-83
2022/02/18 09:08:13;;;;;;;5.27;1.20;;;;;;;;;;5051076;28;20230;-82
2022/02/18 09:10:41;;;;;;;8.47;1.63;;;;;;;;;;5051882;28;20200;-83
2022/02/18 09:13:09;;;;;;;10.00;1.30;;;;;;;;;;5050782;28;20638;-83
2022/02/18 09:15:37;;;;;;;6.77;1.27;;;;;;;;;;5048470;28;20211;-83
2022/02/18 09:18:05;;;;;;;7.77;1.63;;;;;;;;;;5050864;28;20231;-82
2022/02/18 09:20:33;;;;;;;8.00;1.47;;;;;;;;;;5050996;28;20235;-83
2022/02/18 09:23:00;;;;;;;7.17;1.90;;;;;;;;;;5050136;28;20204;-83
2022/02/18 09:25:27;;;;;;;9.83;2.00;;;;;;;;;;5046486;28;20737;-83
2022/02/18 09:27:55;;;;;;;10.07;1.87;;;;;;;;;;5048217;28;20219;-83
2022/02/18 09:30:22;;;;;;;12.77;1.90;;;;;;;;;;5050826;28;20231;-83
2022/02/18 09:32:51;;;;;;;12.57;2.20;;;;;;;;;;5047149;28;20254;-82
2022/02/18 09:35:18;;;;;;;8.83;1.90;;;;;;;;;;5046093;28;20289;-86
2022/02/18 09:37:45;;;;;;;10.73;2.00;;;;;;;;;;5046448;28;20954;-84
2022/02/18 09:40:14;;;;;;;11.07;1.90;;;;;;;;;;5048907;28;20199;-86
2022/02/18 09:42:43;;;;;;;10.73;1.93;;;;;;;;;;5048959;28;20687;-85
2022/02/18 09:45:12;;;;;;;13.13;2.00;;;;;;;;;;5048271;28;20262;-87
2022/02/18 09:47:41;;;;;;;9.50;2.00;;;;;;;;;;5048121;28;20220;-87
2022/02/18 09:50:10;;;;;;;8.23;2.13;;;;;;;;;;5050614;28;20239;-87
2022/02/18 09:52:38;;;;;;;12.33;2.00;;;;;;;;;;5049293;28;20318;-83
2022/02/18 09:55:06;;;;;;;13.70;2.40;;;;;;;;;;5049882;28;20204;-83
2022/02/18 09:57:35;;;;;;;16.40;2.43;;;;;;;;;;5048996;28;21834;-83
2022/02/18 10:00:05;;;;;;;14.30;2.60;;;;;;;;;;5050362;28;20398;-83
2022/02/18 10:02:33;;;;;;;16.03;3.17;;;;;;;;;;5047249;28;20203;-83
2022/02/18 10:05:00;;;;;;;15.00;2.80;;;;;;;;;;5049794;28;20195;-83
2022/02/18 10:07:30;;;;;;;11.77;2.63;;;;;;;;;;5049579;28;20199;-82
2022/02/18 10:09:58;;;;;;;10.47;2.33;;;;;;;;;;5049804;28;20283;-83
2022/02/18 10:12:35;;;;;;;15.27;2.70;;;;;;;;;;5045877;28;20241;-83
2022/02/18 10:15:09;;;;;;;12.83;2.73;;;;;;;;;;5047077;28;20214;-83
2022/02/18 10:17:40;;;;;;;13.87;2.53;;;;;;;;;;5047636;28;20204;-83
2022/02/18 10:20:14;;;;;;;16.83;2.80;;;;;;;;;;5049080;28;20265;-82
2022/02/18 10:22:54;;;;;;;16.13;3.03;;;;;;;;;;5050686;28;20683;-83
2022/02/18 10:25:24;;;;;;;16.93;2.90;;;;;;;;;;5049790;28;20709;-84
2022/02/18 10:27:52;;;;;;;12.63;2.93;;;;;;;;;;5049528;28;20203;-83
2022/02/18 10:30:22;;;;;;;21.80;3.57;;;;;;;;;;5049429;28;20227;-83
2022/02/18 10:32:50;;;;;;;16.40;3.27;;;;;;;;;;5049793;28;20227;-83
2022/02/18 10:35:19;;;;;;;19.77;3.40;;;;;;;;;;5048107;28;20207;-83
2022/02/18 10:37:53;;;;;;;16.97;3.17;;;;;;;;;;5049120;28;20690;-83
2022/02/18 10:40:23;;;;;;;21.10;3.47;;;;;;;;;;5045891;28;20211;-83
2022/02/18 10:42:51;;;;;;;14.53;3.00;;;;;;;;;;5048817;28;20234;-83
2022/02/18 10:45:19;;;;;;;12.90;2.83;;;;;;;;;;5048862;28;20358;-82
2022/02/18 10:47:47;;;;;;;14.73;2.73;;;;;;;;;;5050178;28;20278;-83
2022/02/18 10:50:16;;;;;;;15.83;2.93;;;;;;;;;;5050860;28;20199;-84
2022/02/18 10:52:55;;;;;;;15.30;3.40;;;;;;;;;;5052638;28;20788;-85
2022/02/18 10:55:23;;;;;;;12.23;2.97;;;;;;;;;;5048888;28;20266;-82
2022/02/18 10:58:04;;;;;;;15.30;3.57;;;;;;;;;;5049187;28;20283;-83
2022/02/18 11:00:31;;;;;;;15.77;2.87;;;;;;;;;;5052615;28;20231;-83
2022/02/18 11:02:59;;;;;;;17.00;3.37;;;;;;;;;;5053712;28;20287;-83
2022/02/18 11:05:28;;;;;;;21.27;3.03;;;;;;;;;;5053266;28;20227;-83
2022/02/18 11:08:12;;;;;;;17.33;2.97;;;;;;;;;;5052946;28;20200;-84
2022/02/18 11:10:42;;;;;;;17.90;3.80;;;;;;;;;;5052742;28;20233;-84
2022/02/18 11:13:09;;;;;;;16.67;3.23;;;;;;;;;;5050970;28;20235;-84
2022/02/18 11:15:37;;;;;;;17.13;3.77;;;;;;;;;;5052542;28;20204;-84
2022/02/18 11:18:04;;;;;;;21.30;3.20;;;;;;;;;;5053516;28;20253;-84
2022/02/18 11:20:32;;;;;;;15.77;3.20;;;;;;;;;;5044626;28;20266;-83
2022/02/18 11:22:59;;;;;;;20.87;3.50;;;;;;;;;;5053074;28;20204;-84
2022/02/18 11:25:26;;;;;;;11.97;2.43;;;;;;;;;;5051188;28;20657;-83
2022/02/18 11:27:55;;;;;;;15.70;3.63;;;;;;;;;;5052823;28;20223;-84
2022/02/18 11:30:23;;;;;;;16.77;3.23;;;;;;;;;;5052610;28;20564;-83
2022/02/18 11:32:56;;;;;;;19.00;3.30;;;;;;;;;;5052945;28;20265;-84
2022/02/18 11:35:29;;;;;;;16.93;4.00;;;;;;;;;;5052056;28;20718;-83
2022/02/18 11:38:16;;;;;;;14.00;3.73;;;;;;;;;;5052644;28;20211;-82
2022/02/18 11:40:43;;;;;;;14.93;3.40;;;;;;;;;;5050427;28;20282;-83
2022/02/18 11:43:22;;;;;;;17.13;3.47;;;;;;;;;;5052049;28;20326;-84
2022/02/18 11:45:53;;;;;;;18.23;3.70;;;;;;;;;;5046787;28;20227;-84
2022/02/18 11:48:36;;;;;;;18.73;3.50;;;;;;;;;;5049638;28;20204;-84
2022/02/18 11:51:07;;;;;;;18.20;3.47;;;;;;;;;;5049089;28;20253;-84
2022/02/18 11:53:42;;;;;;;16.43;3.03;;;;;;;;;;5052051;28;20715;-84
2022/02/18 11:56:09;;;;;;;15.00;2.77;;;;;;;;;;5052516;28;20199;-85
2022/02/18 11:58:51;;;;;;;10.80;2.60;;;;;;;;;;5047799;28;20199;-85
2022/02/18 12:01:20;;;;;;;14.57;2.97;;;;;;;;;;5049756;28;20935;-85
2022/02/18 12:04:06;;;;;;;18.63;3.10;;;;;;;;;;5050157;28;20219;-87
2022/02/18 12:06:34;;;;;;;16.67;3.43;;;;;;;;;;5053801;28;20227;-88
2022/02/18 12:09:02;;;;;;;15.97;2.83;;;;;;;;;;5054689;28;20222;-88
2022/02/18 12:14:22;;;;;;;17.27;2.83;;;;;;;;;;5053336;28;20277;-89
2022/02/18 12:16:51;;;;;;;12.43;2.43;;;;;;;;;;5052981;28;20200;-88
2022/02/18 12:19:25;;;;;;;11.43;2.23;;;;;;;;;;5050535;28;20200;-88
2022/02/18 12:22:00;;;;;;;7.73;1.80;;;;;;;;;;5052770;28;20842;-85
2022/02/18 12:24:44;;;;;;;14.17;2.40;;;;;;;;;;5052425;28;20239;-86
2022/02/18 12:27:32;;;;;;;12.53;2.30;;;;;;;;;;5051701;28;20287;-88
2022/02/18 12:30:00;;;;;;;11.73;2.17;;;;;;;;;;5054939;28;20619;-89
2022/02/18 12:32:29;;;;;;;13.73;2.30;;;;;;;;;;5054606;28;20638;-89
2022/02/18 12:35:01;;;;;;;12.13;2.27;;;;;;;;;;5050622;28;20204;-89
2022/02/18 12:37:28;;;;;;;9.80;1.90;;;;;;;;;;5052410;28;20231;-88
2022/02/18 12:39:56;;;;;;;10.73;2.70;;;;;;;;;;5053827;28;20227;-89
2022/02/18 12:42:24;;;;;;;10.57;2.37;;;;;;;;;;5053238;28;20251;-89
2022/02/18 12:44:52;;;;;;;12.60;2.27;;;;;;;;;;5052034;28;20269;-88
2022/02/18 12:47:23;;;;;;;11.10;2.40;;;;;;;;;;5051552;28;20287;-88
2022/02/18 12:49:53;;;;;;;13.13;3.10;;;;;;;;;;5050077;28;20227;-86
2022/02/18 12:52:21;;;;;;;11.70;2.77;;;;;;;;;;5065461;28;20199;-88
2022/02/18 12:54:49;;;;;;;9.87;2.10;;;;;;;;;;5052184;28;20251;-87
2022/02/18 12:57:17;;;;;;;13.70;2.40;;;;;;;;;;5052237;28;20246;-87
2022/02/18 12:59:44;;;;;;;13.30;2.27;;;;;;;;;;5050567;28;20227;-86
2022/02/18 13:02:12;;;;;;;11.17;2.20;;;;;;;;;;5057510;28;20214;-85
2022/02/18 13:04:39;;;;;;;15.40;2.23;;;;;;;;;;5051579;28;20196;-88
2022/02/18 13:07:10;;;;;;;12.43;2.20;;;;;;;;;;5051703;28;20279;-84
2022/02/18 13:09:38;;;;;;;10.57;2.07;;;;;;;;;;5051441;28;20202;-84
2022/02/18 13:12:05;;;;;;;12.37;2.07;;;;;;;;;;5052174;28;20245;-84
2022/02/18 13:14:33;;;;;;;8.77;2.53;;;;;;;;;;5051355;28;20766;-84
2022/02/18 13:17:00;;;;;;;11.10;2.13;;;;;;;;;;5051937;28;20204;-85
2022/02/18 13:19:27;;;;;;;6.23;1.73;;;;;;;;;;5046410;28;20200;-85
2022/02/18 13:21:54;;;;;;;12.57;2.50;;;;;;;;;;5049498;28;20776;-85
2022/02/18 13:24:29;;;;;;;12.07;2.03;;;;;;;;;;5051700;28;20227;-82
2022/02/18 13:26:56;;;;;;;8.93;2.03;;;;;;;;;;5050667;28;20196;-83